Time;durP1;ratioP1;P1;durP2;ratioP2;P2;SDS_P1;SDS_P2;PMS_P1;PMS_P2;Temp;Humidity;BMP_temperature;BMP_pressure;BME280_temperature;BME280_humidity;BME280_pressure;Samples;Min_cycle;Max_cycle;Signal;HPM_P1;HPM_P2
2022/06/10 00:00:37;;;;;;;7.50;5.00;;;;;;;;;;5000389;28;20485;-82
2022/06/10 00:03:04;;;;;;;8.20;5.50;;;;;;;;;;5009110;28;20466;-81
2022/06/10 00:05:31;;;;;;;5.53;4.03;;;;;;;;;;5007578;28;20906;-81
2022/06/10 00:07:58;;;;;;;8.70;4.67;;;;;;;;;;5009179;28;20473;-83
2022/06/10 00:10:26;;;;;;;5.10;4.10;;;;;;;;;;5006662;28;20481;-82
2022/06/10 00:12:52;;;;;;;7.90;6.43;;;;;;;;;;5008499;28;20513;-81
2022/06/10 00:15:19;;;;;;;6.43;5.17;;;;;;;;;;5008935;28;21010;-81
2022/06/10 00:17:47;;;;;;;8.70;5.63;;;;;;;;;;5008259;28;20503;-85
2022/06/10 00:20:14;;;;;;;6.63;4.77;;;;;;;;;;5004848;28;20485;-82
2022/06/10 00:22:41;;;;;;;7.10;4.73;;;;;;;;;;5001941;28;20583;-81
2022/06/10 00:25:08;;;;;;;8.40;4.93;;;;;;;;;;5000531;28;20929;-79
2022/06/10 00:27:34;;;;;;;9.20;5.80;;;;;;;;;;5004563;28;21011;-81
2022/06/10 00:30:00;;;;;;;9.63;6.90;;;;;;;;;;5003803;28;20448;-79
2022/06/10 00:32:26;;;;;;;7.83;5.17;;;;;;;;;;5004227;28;20539;-83
2022/06/10 00:34:54;;;;;;;12.23;5.20;;;;;;;;;;5004028;28;20502;-82
2022/06/10 00:37:20;;;;;;;8.53;5.00;;;;;;;;;;5002892;28;20484;-80
2022/06/10 00:39:47;;;;;;;7.00;5.70;;;;;;;;;;5001063;28;20579;-79
2022/06/10 00:42:13;;;;;;;6.83;5.20;;;;;;;;;;5003977;28;20508;-82
2022/06/10 00:44:40;;;;;;;8.53;4.93;;;;;;;;;;5000126;28;20473;-82
2022/06/10 00:47:12;;;;;;;5.37;4.87;;;;;;;;;;5005264;28;20890;-82
2022/06/10 00:49:39;;;;;;;7.23;5.33;;;;;;;;;;5002379;28;20560;-81
2022/06/10 00:52:13;;;;;;;7.17;5.57;;;;;;;;;;5003232;28;20463;-81
2022/06/10 00:54:41;;;;;;;6.40;5.43;;;;;;;;;;5003577;28;20470;-81
2022/06/10 00:57:10;;;;;;;6.67;5.57;;;;;;;;;;5006892;28;20515;-82
2022/06/10 00:59:39;;;;;;;7.93;4.57;;;;;;;;;;5004567;28;20516;-82
2022/06/10 01:02:08;;;;;;;8.37;5.70;;;;;;;;;;5006440;28;20465;-82
2022/06/10 01:04:35;;;;;;;9.17;5.27;;;;;;;;;;5005561;28;20495;-83
2022/06/10 01:07:01;;;;;;;7.00;5.10;;;;;;;;;;5005065;28;20552;-82
2022/06/10 01:09:30;;;;;;;7.00;5.50;;;;;;;;;;5005263;28;20825;-82
2022/06/10 01:12:22;;;;;;;6.23;4.77;;;;;;;;;;5007601;28;20468;-81
2022/06/10 01:15:00;;;;;;;5.93;4.80;;;;;;;;;;4949748;28;20492;-81
2022/06/10 01:17:44;;;;;;;8.60;4.67;;;;;;;;;;5003777;28;20512;-83
2022/06/10 01:20:24;;;;;;;7.20;5.13;;;;;;;;;;5006140;28;20572;-81
2022/06/10 01:23:04;;;;;;;8.13;5.33;;;;;;;;;;5005324;28;21201;-82
2022/06/10 01:25:43;;;;;;;7.40;5.67;;;;;;;;;;5006024;28;20478;-82
2022/06/10 01:28:13;;;;;;;9.43;5.83;;;;;;;;;;5003532;28;20473;-80
2022/06/10 01:30:45;;;;;;;6.27;5.70;;;;;;;;;;5006687;28;20469;-82
2022/06/10 01:33:17;;;;;;;10.07;6.37;;;;;;;;;;5005942;28;20461;-80
2022/06/10 01:35:46;;;;;;;10.33;5.77;;;;;;;;;;5005001;28;20485;-81
2022/06/10 01:38:16;;;;;;;5.80;5.03;;;;;;;;;;5005352;28;20873;-82
2022/06/10 01:40:48;;;;;;;6.33;5.37;;;;;;;;;;5006463;28;20543;-81
2022/06/10 01:43:17;;;;;;;6.57;5.10;;;;;;;;;;5006441;28;20443;-82
2022/06/10 01:45:48;;;;;;;8.13;5.93;;;;;;;;;;5005964;28;20470;-81
2022/06/10 01:48:17;;;;;;;7.57;5.70;;;;;;;;;;5008281;28;20473;-81
2022/06/10 01:50:46;;;;;;;7.30;5.87;;;;;;;;;;5004529;28;20481;-81
2022/06/10 01:53:14;;;;;;;6.90;6.30;;;;;;;;;;5005609;28;20462;-80
2022/06/10 01:55:45;;;;;;;8.00;5.70;;;;;;;;;;5006743;28;20537;-81
2022/06/10 01:58:13;;;;;;;7.33;6.00;;;;;;;;;;5005420;28;20462;-80
2022/06/10 02:00:41;;;;;;;6.87;5.80;;;;;;;;;;5001814;28;21016;-81
2022/06/10 02:03:10;;;;;;;8.40;6.57;;;;;;;;;;5006238;28;20463;-81
2022/06/10 02:05:38;;;;;;;6.83;5.60;;;;;;;;;;5003786;28;20474;-82
2022/06/10 02:08:11;;;;;;;7.30;6.70;;;;;;;;;;5003844;28;20525;-81
2022/06/10 02:10:39;;;;;;;11.93;7.67;;;;;;;;;;5004775;28;20470;-83
2022/06/10 02:13:08;;;;;;;9.33;6.70;;;;;;;;;;5007191;28;20461;-81
2022/06/10 02:15:36;;;;;;;7.97;6.30;;;;;;;;;;5004586;28;20482;-84
2022/06/10 02:18:06;;;;;;;6.90;6.20;;;;;;;;;;5006833;28;20556;-84
2022/06/10 02:20:36;;;;;;;13.00;6.57;;;;;;;;;;5005095;28;20490;-82
2022/06/10 02:23:03;;;;;;;9.07;6.77;;;;;;;;;;5005870;28;20964;-81
2022/06/10 02:25:32;;;;;;;7.67;5.30;;;;;;;;;;5004825;28;20481;-83
2022/06/10 02:28:00;;;;;;;6.40;5.80;;;;;;;;;;5002608;28;20466;-80
2022/06/10 02:30:28;;;;;;;7.37;6.23;;;;;;;;;;5006115;28;20553;-83
2022/06/10 02:32:55;;;;;;;8.87;5.63;;;;;;;;;;5006997;28;20497;-81
2022/06/10 02:35:22;;;;;;;5.83;5.30;;;;;;;;;;5005956;28;20992;-83
2022/06/10 02:37:54;;;;;;;6.23;5.63;;;;;;;;;;5004320;28;20935;-82
2022/06/10 02:40:23;;;;;;;6.63;6.03;;;;;;;;;;5004335;28;21033;-82
2022/06/10 02:42:54;;;;;;;10.63;6.30;;;;;;;;;;5005584;28;20462;-83
2022/06/10 02:45:23;;;;;;;9.60;5.73;;;;;;;;;;5004067;28;20476;-82
2022/06/10 02:47:54;;;;;;;8.60;5.90;;;;;;;;;;5005707;28;21003;-80
2022/06/10 02:50:20;;;;;;;9.47;7.57;;;;;;;;;;5006252;28;20474;-81
2022/06/10 02:52:47;;;;;;;12.67;6.63;;;;;;;;;;5005757;28;20466;-82
2022/06/10 02:55:16;;;;;;;12.23;6.40;;;;;;;;;;5002772;28;20490;-82
2022/06/10 03:03:17;;;;;;;7.67;6.13;;;;;;;;;;5006429;28;20448;-81
2022/06/10 03:05:48;;;;;;;8.90;6.83;;;;;;;;;;5005463;28;20477;-81
2022/06/10 03:08:23;;;;;;;7.43;6.13;;;;;;;;;;5005619;28;20466;-81
2022/06/10 03:10:57;;;;;;;18.40;6.77;;;;;;;;;;5004007;28;20524;-81
2022/06/10 03:13:33;;;;;;;9.47;6.53;;;;;;;;;;5005289;28;20508;-81
2022/06/10 03:16:09;;;;;;;7.53;6.93;;;;;;;;;;5004801;28;20481;-82
2022/06/10 03:18:38;;;;;;;7.33;6.13;;;;;;;;;;5004615;28;20450;-81
2022/06/10 03:21:10;;;;;;;7.03;6.17;;;;;;;;;;5006623;28;20512;-81
2022/06/10 03:23:42;;;;;;;9.50;6.13;;;;;;;;;;5005605;28;20459;-81
2022/06/10 03:26:14;;;;;;;8.87;6.63;;;;;;;;;;5005065;28;20486;-82
2022/06/10 03:28:43;;;;;;;9.70;6.43;;;;;;;;;;5004643;28;20465;-83
2022/06/10 03:31:13;;;;;;;16.03;7.60;;;;;;;;;;5007372;28;20552;-81
2022/06/10 03:33:43;;;;;;;6.70;6.00;;;;;;;;;;5005027;28;20461;-80
2022/06/10 03:36:11;;;;;;;10.43;5.97;;;;;;;;;;5006055;28;20511;-81
2022/06/10 03:38:39;;;;;;;8.40;5.70;;;;;;;;;;5005246;28;20477;-81
2022/06/10 03:41:06;;;;;;;10.50;6.10;;;;;;;;;;5005436;28;20476;-82
2022/06/10 03:43:35;;;;;;;14.20;7.33;;;;;;;;;;5003021;28;20925;-81
2022/06/10 03:46:04;;;;;;;7.63;6.93;;;;;;;;;;5005366;28;20497;-82
2022/06/10 03:48:32;;;;;;;10.57;7.00;;;;;;;;;;5008220;28;20452;-81
2022/06/10 03:50:59;;;;;;;8.70;7.80;;;;;;;;;;5003047;28;20515;-80
2022/06/10 03:53:26;;;;;;;12.00;8.00;;;;;;;;;;5006571;28;20456;-80
2022/06/10 03:55:52;;;;;;;8.50;7.63;;;;;;;;;;5007052;28;22275;-81
2022/06/10 03:58:19;;;;;;;9.17;6.93;;;;;;;;;;5007499;28;20462;-80
2022/06/10 04:00:47;;;;;;;9.53;7.60;;;;;;;;;;5006206;28;20480;-80
2022/06/10 04:03:13;;;;;;;12.30;7.80;;;;;;;;;;5009880;28;20458;-81
2022/06/10 04:05:39;;;;;;;15.40;7.43;;;;;;;;;;5005162;28;20482;-82
2022/06/10 04:08:06;;;;;;;12.93;8.07;;;;;;;;;;5038186;23;20498;-89
2022/06/10 04:10:33;;;;;;;8.53;6.80;;;;;;;;;;5002234;28;20492;-86
2022/06/10 04:12:59;;;;;;;11.40;7.40;;;;;;;;;;5003494;28;20483;-85
2022/06/10 04:15:27;;;;;;;10.40;8.10;;;;;;;;;;5002316;28;20474;-86
2022/06/10 04:17:56;;;;;;;17.20;8.90;;;;;;;;;;4991913;28;20474;-87
2022/06/10 04:20:23;;;;;;;10.70;8.67;;;;;;;;;;4982765;28;21042;-89
2022/06/10 04:22:49;;;;;;;13.17;8.90;;;;;;;;;;4981449;28;20463;-86
2022/06/10 04:25:16;;;;;;;14.87;9.27;;;;;;;;;;4981183;28;20482;-85
2022/06/10 04:27:42;;;;;;;11.07;7.97;;;;;;;;;;4982690;28;20486;-85
2022/06/10 04:30:10;;;;;;;16.10;7.93;;;;;;;;;;4986607;28;20475;-87
2022/06/10 04:32:36;;;;;;;12.17;8.17;;;;;;;;;;4987223;28;20502;-86
2022/06/10 04:35:04;;;;;;;15.03;9.87;;;;;;;;;;4983279;28;20478;-85
2022/06/10 04:37:30;;;;;;;18.53;11.20;;;;;;;;;;4981476;28;20541;-85
2022/06/10 04:39:56;;;;;;;15.77;9.93;;;;;;;;;;4978638;28;20887;-86
2022/06/10 04:42:23;;;;;;;15.87;11.43;;;;;;;;;;4979750;28;20839;-87
2022/06/10 04:44:49;;;;;;;15.43;11.30;;;;;;;;;;4979640;28;20520;-85
2022/06/10 04:47:15;;;;;;;13.17;10.70;;;;;;;;;;4982336;28;20483;-86
2022/06/10 04:49:42;;;;;;;13.57;9.90;;;;;;;;;;4987050;28;20497;-90
2022/06/10 04:52:09;;;;;;;19.07;10.90;;;;;;;;;;4988358;28;20451;-89
2022/06/10 04:54:35;;;;;;;15.73;10.37;;;;;;;;;;4989912;28;20474;-87
2022/06/10 04:57:02;;;;;;;12.20;9.60;;;;;;;;;;4986943;28;20482;-86
2022/06/10 04:59:28;;;;;;;15.47;10.47;;;;;;;;;;4987067;28;20482;-87
2022/06/10 05:01:54;;;;;;;13.53;9.90;;;;;;;;;;4988518;28;20467;-87
2022/06/10 05:04:21;;;;;;;16.00;10.07;;;;;;;;;;4985966;28;20502;-85
2022/06/10 05:06:47;;;;;;;14.60;9.20;;;;;;;;;;4987033;28;20462;-85
2022/06/10 05:09:15;;;;;;;13.27;8.83;;;;;;;;;;4987558;28;20475;-86
2022/06/10 05:11:41;;;;;;;16.40;9.70;;;;;;;;;;4988386;28;20466;-86
2022/06/10 05:14:07;;;;;;;11.97;8.50;;;;;;;;;;4987714;28;20906;-86
2022/06/10 05:16:34;;;;;;;16.17;8.57;;;;;;;;;;4993020;28;20471;-84
2022/06/10 05:19:00;;;;;;;13.83;8.00;;;;;;;;;;4992008;28;20458;-90
2022/06/10 05:21:26;;;;;;;10.30;8.87;;;;;;;;;;4993239;28;20455;-84
2022/06/10 05:23:52;;;;;;;14.73;8.33;;;;;;;;;;4986893;28;20466;-84
2022/06/10 05:26:20;;;;;;;12.00;7.53;;;;;;;;;;4984249;28;20471;-84
2022/06/10 05:28:50;;;;;;;16.60;7.97;;;;;;;;;;4983560;28;20489;-86
2022/06/10 05:31:16;;;;;;;12.47;7.40;;;;;;;;;;4982871;28;20503;-84
2022/06/10 05:36:26;;;;;;;18.57;8.00;;;;;;;;;;4986339;28;20513;-87
2022/06/10 05:38:52;;;;;;;17.00;8.33;;;;;;;;;;4986745;28;20474;-83
2022/06/10 05:44:05;;;;;;;9.77;6.37;;;;;;;;;;4994945;28;20841;-84
2022/06/10 05:46:31;;;;;;;9.40;6.73;;;;;;;;;;4989556;28;20721;-86
2022/06/10 05:48:57;;;;;;;10.57;7.90;;;;;;;;;;4987908;28;20474;-88
2022/06/10 05:51:24;;;;;;;11.13;7.70;;;;;;;;;;4992182;28;20469;-86
2022/06/10 05:53:50;;;;;;;13.57;6.90;;;;;;;;;;4987367;28;20429;-86
2022/06/10 05:56:16;;;;;;;18.43;6.40;;;;;;;;;;4991651;28;20490;-86
2022/06/10 05:58:44;;;;;;;7.50;5.00;;;;;;;;;;4991754;28;20463;-85
2022/06/10 06:01:10;;;;;;;7.37;5.70;;;;;;;;;;4993342;28;20458;-86
2022/06/10 06:03:37;;;;;;;16.00;6.20;;;;;;;;;;4989189;28;20462;-87
2022/06/10 06:06:04;;;;;;;7.57;6.73;;;;;;;;;;4989381;28;20437;-85
2022/06/10 06:08:30;;;;;;;14.90;5.97;;;;;;;;;;4995093;28;20454;-88
2022/06/10 06:10:56;;;;;;;8.20;5.47;;;;;;;;;;4989821;28;20502;-87
2022/06/10 06:13:23;;;;;;;13.10;5.50;;;;;;;;;;4991663;28;20949;-87
2022/06/10 06:15:51;;;;;;;8.03;5.33;;;;;;;;;;4992026;28;20455;-85
2022/06/10 06:18:17;;;;;;;9.10;6.13;;;;;;;;;;4993308;28;20457;-86
2022/06/10 06:20:43;;;;;;;8.40;5.40;;;;;;;;;;4992059;28;20565;-87
2022/06/10 06:23:11;;;;;;;6.77;4.50;;;;;;;;;;4991218;28;20425;-86
2022/06/10 06:25:37;;;;;;;5.50;4.40;;;;;;;;;;4995940;28;20501;-87
2022/06/10 06:28:04;;;;;;;15.10;4.60;;;;;;;;;;4992759;28;20468;-85
2022/06/10 06:30:32;;;;;;;7.97;4.53;;;;;;;;;;4993418;28;20449;-85
2022/06/10 06:33:01;;;;;;;7.50;4.47;;;;;;;;;;4993850;28;20453;-85
2022/06/10 06:35:28;;;;;;;10.57;4.57;;;;;;;;;;4987217;28;20478;-88
2022/06/10 06:37:54;;;;;;;8.23;3.53;;;;;;;;;;4993084;28;20469;-86
2022/06/10 06:40:21;;;;;;;6.93;4.27;;;;;;;;;;4991541;28;20495;-86
2022/06/10 06:42:48;;;;;;;11.60;4.80;;;;;;;;;;4992111;28;20466;-85
2022/06/10 06:45:15;;;;;;;8.40;4.30;;;;;;;;;;4987722;28;20478;-88
2022/06/10 06:47:42;;;;;;;9.90;4.27;;;;;;;;;;4990764;28;20546;-87
2022/06/10 06:50:10;;;;;;;5.57;3.77;;;;;;;;;;4986560;28;21019;-86
2022/06/10 06:52:36;;;;;;;8.53;3.57;;;;;;;;;;4987800;28;20471;-89
2022/06/10 06:55:03;;;;;;;7.00;3.33;;;;;;;;;;4986851;28;20503;-85
2022/06/10 06:57:29;;;;;;;7.57;3.70;;;;;;;;;;4990866;28;20474;-87
2022/06/10 07:00:04;;;;;;;6.90;3.47;;;;;;;;;;4982816;28;20446;-86
2022/06/10 07:02:30;;;;;;;6.63;3.40;;;;;;;;;;4989868;28;20455;-84
2022/06/10 07:04:56;;;;;;;9.43;3.67;;;;;;;;;;4990287;28;20475;-85
2022/06/10 07:07:24;;;;;;;7.80;3.80;;;;;;;;;;4986516;28;20486;-85
2022/06/10 07:09:50;;;;;;;7.30;3.13;;;;;;;;;;4990072;28;20474;-84
2022/06/10 07:12:17;;;;;;;6.23;3.27;;;;;;;;;;4990399;28;20505;-85
2022/06/10 07:14:43;;;;;;;8.83;3.13;;;;;;;;;;4995464;28;20463;-86
2022/06/10 07:17:11;;;;;;;3.37;2.83;;;;;;;;;;4990838;28;20521;-84
2022/06/10 07:19:38;;;;;;;13.40;4.27;;;;;;;;;;4989246;28;21005;-85
2022/06/10 07:22:05;;;;;;;8.40;3.10;;;;;;;;;;4987608;28;20498;-85
2022/06/10 07:24:33;;;;;;;6.43;2.63;;;;;;;;;;4986505;28;20554;-85
2022/06/10 07:27:00;;;;;;;7.80;3.50;;;;;;;;;;4988781;28;21073;-85
2022/06/10 07:29:26;;;;;;;7.60;3.13;;;;;;;;;;4989666;28;20521;-84
2022/06/10 07:31:52;;;;;;;7.30;2.90;;;;;;;;;;4987705;28;20461;-85
2022/06/10 07:34:19;;;;;;;7.40;3.53;;;;;;;;;;4986895;28;20574;-86
2022/06/10 07:36:45;;;;;;;5.00;3.03;;;;;;;;;;4985771;28;20487;-88
2022/06/10 07:39:11;;;;;;;8.87;3.57;;;;;;;;;;4988601;28;21078;-90
2022/06/10 07:44:23;;;;;;;7.70;3.30;;;;;;;;;;4989433;28;20477;-84
2022/06/10 07:46:50;;;;;;;5.63;3.37;;;;;;;;;;4988553;28;20494;-85
2022/06/10 07:49:17;;;;;;;7.93;3.27;;;;;;;;;;4987559;28;20486;-85
2022/06/10 07:51:43;;;;;;;10.93;3.77;;;;;;;;;;4988173;28;20470;-85
2022/06/10 07:54:10;;;;;;;10.17;3.07;;;;;;;;;;4986288;28;20480;-85
2022/06/10 07:56:36;;;;;;;8.63;3.17;;;;;;;;;;4988694;28;20478;-85
2022/06/10 07:59:04;;;;;;;9.27;2.90;;;;;;;;;;4998134;28;20470;-85
2022/06/10 08:01:30;;;;;;;4.60;3.17;;;;;;;;;;4986858;28;20440;-84
2022/06/10 08:03:57;;;;;;;6.27;3.40;;;;;;;;;;4984735;28;21048;-86
2022/06/10 08:06:25;;;;;;;8.63;3.40;;;;;;;;;;4987347;28;20501;-85
2022/06/10 08:08:52;;;;;;;9.37;3.20;;;;;;;;;;4981960;28;20489;-85
2022/06/10 08:11:18;;;;;;;13.23;4.93;;;;;;;;;;4987274;28;20458;-83
2022/06/10 08:13:45;;;;;;;12.73;5.03;;;;;;;;;;4985207;28;20439;-83
2022/06/10 08:16:13;;;;;;;7.20;4.70;;;;;;;;;;4987320;28;20490;-85
2022/06/10 08:18:39;;;;;;;13.90;5.60;;;;;;;;;;4979980;28;20478;-87
2022/06/10 08:23:51;;;;;;;14.37;6.40;;;;;;;;;;4983260;28;20453;-86
2022/06/10 08:26:17;;;;;;;9.60;6.27;;;;;;;;;;4987286;28;20447;-84
2022/06/10 08:28:46;;;;;;;9.77;5.60;;;;;;;;;;4982892;28;20977;-87
2022/06/10 08:31:14;;;;;;;11.17;5.90;;;;;;;;;;4983643;28;20544;-85
2022/06/10 08:33:41;;;;;;;7.33;5.53;;;;;;;;;;4986794;28;20485;-85
2022/06/10 08:36:08;;;;;;;14.53;7.10;;;;;;;;;;4982408;28;20479;-83
2022/06/10 08:38:35;;;;;;;12.30;6.27;;;;;;;;;;4982676;28;20473;-87
2022/06/10 08:41:04;;;;;;;11.47;6.80;;;;;;;;;;4988226;28;20443;-84
2022/06/10 08:43:35;;;;;;;7.40;5.20;;;;;;;;;;4984125;28;20542;-83
2022/06/10 08:46:07;;;;;;;8.57;5.80;;;;;;;;;;4984573;28;20459;-84
2022/06/10 08:48:38;;;;;;;12.50;5.40;;;;;;;;;;4984138;28;20450;-85
2022/06/10 08:51:10;;;;;;;9.83;5.17;;;;;;;;;;4984174;28;20953;-83
2022/06/10 08:53:48;;;;;;;11.60;7.57;;;;;;;;;;4981499;28;20885;-83
2022/06/10 08:56:17;;;;;;;9.93;5.13;;;;;;;;;;4989259;28;20903;-84
2022/06/10 08:58:48;;;;;;;10.83;4.23;;;;;;;;;;4985609;28;20494;-85
2022/06/10 09:01:16;;;;;;;9.47;4.63;;;;;;;;;;4982570;28;20962;-83
2022/06/10 09:03:45;;;;;;;5.30;4.27;;;;;;;;;;4981966;28;20474;-84
2022/06/10 09:06:14;;;;;;;8.83;4.80;;;;;;;;;;4983836;28;20796;-82
2022/06/10 09:08:42;;;;;;;6.13;4.80;;;;;;;;;;4979835;28;20490;-83
2022/06/10 09:11:13;;;;;;;7.50;4.90;;;;;;;;;;4982147;28;20462;-87
2022/06/10 09:13:40;;;;;;;11.20;4.80;;;;;;;;;;4981040;28;20454;-85
2022/06/10 09:16:09;;;;;;;9.23;4.83;;;;;;;;;;4985294;28;20581;-84
2022/06/10 09:18:43;;;;;;;7.97;4.70;;;;;;;;;;4986847;28;20481;-81
2022/06/10 09:21:14;;;;;;;11.43;5.70;;;;;;;;;;4984959;28;20964;-82
2022/06/10 09:23:42;;;;;;;11.13;6.17;;;;;;;;;;4986553;28;20463;-82
2022/06/10 09:26:10;;;;;;;9.30;4.60;;;;;;;;;;4993428;28;20538;-84
2022/06/10 09:28:38;;;;;;;8.33;5.90;;;;;;;;;;4987679;28;20933;-83
2022/06/10 09:31:06;;;;;;;9.97;5.70;;;;;;;;;;4989444;28;20545;-84
2022/06/10 09:33:37;;;;;;;11.30;7.03;;;;;;;;;;4988098;28;20470;-84
2022/06/10 09:36:06;;;;;;;9.90;6.40;;;;;;;;;;4987142;28;20487;-84
2022/06/10 09:38:37;;;;;;;17.63;7.10;;;;;;;;;;4992219;28;20862;-84
2022/06/10 09:41:10;;;;;;;10.10;5.13;;;;;;;;;;4996289;28;20448;-83
2022/06/10 09:43:48;;;;;;;5.47;4.97;;;;;;;;;;4988429;28;20472;-83
2022/06/10 09:46:22;;;;;;;6.30;5.10;;;;;;;;;;4988490;28;20464;-84
2022/06/10 09:48:54;;;;;;;10.63;5.00;;;;;;;;;;4987664;28;20659;-83
2022/06/10 09:51:22;;;;;;;5.30;4.80;;;;;;;;;;4985668;28;20459;-87
2022/06/10 09:53:59;;;;;;;7.53;4.40;;;;;;;;;;4989040;28;20466;-84
2022/06/10 09:56:41;;;;;;;11.33;4.17;;;;;;;;;;4987567;28;20531;-83
2022/06/10 09:59:12;;;;;;;5.63;3.67;;;;;;;;;;4991170;28;20486;-83
2022/06/10 10:01:41;;;;;;;6.00;3.40;;;;;;;;;;4985489;28;20838;-83
2022/06/10 10:04:15;;;;;;;7.97;3.27;;;;;;;;;;4982221;28;20478;-84
2022/06/10 10:06:43;;;;;;;4.67;3.20;;;;;;;;;;4984844;28;20462;-84
2022/06/10 10:09:17;;;;;;;5.80;3.77;;;;;;;;;;5028768;23;20580;-83
2022/06/10 10:11:46;;;;;;;8.87;3.80;;;;;;;;;;5026693;28;20975;-82
2022/06/10 10:14:20;;;;;;;3.53;2.90;;;;;;;;;;5025211;28;20470;-80
2022/06/10 10:16:51;;;;;;;9.40;4.00;;;;;;;;;;5027005;28;20514;-81
2022/06/10 10:19:24;;;;;;;5.23;3.10;;;;;;;;;;5008901;28;20497;-81
2022/06/10 10:21:59;;;;;;;9.67;3.90;;;;;;;;;;5007370;28;20529;-83
2022/06/10 10:24:27;;;;;;;6.13;4.10;;;;;;;;;;5005041;28;20472;-81
2022/06/10 10:26:55;;;;;;;4.07;3.67;;;;;;;;;;5005599;28;20469;-82
2022/06/10 10:29:22;;;;;;;5.50;3.90;;;;;;;;;;5004785;28;20479;-81
2022/06/10 10:31:50;;;;;;;6.83;3.97;;;;;;;;;;5008302;28;20466;-82
2022/06/10 10:34:19;;;;;;;5.50;3.73;;;;;;;;;;5007320;28;20482;-81
2022/06/10 10:36:47;;;;;;;4.67;3.80;;;;;;;;;;5008527;28;20494;-80
2022/06/10 10:39:15;;;;;;;4.33;3.27;;;;;;;;;;5006979;28;20482;-80
2022/06/10 10:41:43;;;;;;;6.10;3.30;;;;;;;;;;5005728;28;20465;-81
2022/06/10 10:44:24;;;;;;;11.03;4.30;;;;;;;;;;5007711;28;21038;-81
2022/06/10 10:46:58;;;;;;;3.87;3.57;;;;;;;;;;5009097;28;21026;-80
2022/06/10 10:49:27;;;;;;;5.93;4.10;;;;;;;;;;4999594;28;20564;-81
2022/06/10 10:51:54;;;;;;;5.97;4.43;;;;;;;;;;5000653;28;20466;-83
2022/06/10 10:54:23;;;;;;;6.77;5.40;;;;;;;;;;5003267;28;20469;-82
2022/06/10 10:56:51;;;;;;;8.67;4.77;;;;;;;;;;5003448;28;21038;-83
2022/06/10 10:59:32;;;;;;;6.67;5.10;;;;;;;;;;5000532;28;20889;-81
2022/06/10 11:01:59;;;;;;;7.57;4.90;;;;;;;;;;5001741;28;20560;-82
2022/06/10 11:04:27;;;;;;;5.63;4.20;;;;;;;;;;5002380;28;20474;-81
2022/06/10 11:06:59;;;;;;;6.03;5.43;;;;;;;;;;5002703;28;20815;-81
2022/06/10 11:09:26;;;;;;;6.23;4.63;;;;;;;;;;5002236;28;20479;-81
2022/06/10 11:11:54;;;;;;;6.50;4.70;;;;;;;;;;5002698;28;20903;-80
2022/06/10 11:14:23;;;;;;;5.90;5.30;;;;;;;;;;5001988;28;21054;-82
2022/06/10 11:17:02;;;;;;;9.27;5.00;;;;;;;;;;5004426;28;20516;-80
2022/06/10 11:19:48;;;;;;;6.73;5.03;;;;;;;;;;4999954;28;20481;-80
2022/06/10 11:22:20;;;;;;;8.23;4.60;;;;;;;;;;5002857;28;20450;-80
2022/06/10 11:24:48;;;;;;;10.87;5.53;;;;;;;;;;5003029;28;20533;-81
2022/06/10 11:27:21;;;;;;;14.03;7.37;;;;;;;;;;5002914;28;20529;-80
2022/06/10 11:29:57;;;;;;;6.90;5.60;;;;;;;;;;5001692;28;20505;-83
2022/06/10 11:32:25;;;;;;;9.57;5.23;;;;;;;;;;5003128;28;20523;-83
2022/06/10 11:34:56;;;;;;;10.73;5.40;;;;;;;;;;5001539;28;20873;-84
2022/06/10 11:37:26;;;;;;;10.70;6.30;;;;;;;;;;5002294;28;20493;-80
2022/06/10 11:39:56;;;;;;;9.87;6.47;;;;;;;;;;5000832;28;20494;-82
2022/06/10 11:42:27;;;;;;;15.30;6.87;;;;;;;;;;5001989;28;20542;-83
2022/06/10 11:44:57;;;;;;;7.53;4.50;;;;;;;;;;5000903;28;20587;-83
2022/06/10 11:47:26;;;;;;;9.20;5.90;;;;;;;;;;5000471;28;20497;-79
2022/06/10 11:49:56;;;;;;;10.83;5.77;;;;;;;;;;5000343;28;20545;-81
2022/06/10 11:52:27;;;;;;;9.97;5.97;;;;;;;;;;5001353;28;20874;-83
2022/06/10 11:54:56;;;;;;;7.77;6.33;;;;;;;;;;5000495;28;20483;-81
2022/06/10 12:00:15;;;;;;;11.57;5.30;;;;;;;;;;5000342;28;20480;-80
2022/06/10 12:02:44;;;;;;;6.73;4.70;;;;;;;;;;5002566;28;20454;-82
2022/06/10 12:05:17;;;;;;;8.27;5.33;;;;;;;;;;4998498;28;20533;-81
2022/06/10 12:07:46;;;;;;;14.87;4.60;;;;;;;;;;5001989;28;20601;-83
2022/06/10 12:10:15;;;;;;;8.40;4.60;;;;;;;;;;5000241;28;20533;-79
2022/06/10 12:12:44;;;;;;;9.30;4.10;;;;;;;;;;5001958;28;20458;-80
2022/06/10 12:15:18;;;;;;;5.23;4.73;;;;;;;;;;5001419;28;20522;-80
2022/06/10 12:17:46;;;;;;;7.80;4.50;;;;;;;;;;5000379;28;20489;-80
2022/06/10 12:20:16;;;;;;;9.83;5.43;;;;;;;;;;5000193;28;20479;-84
2022/06/10 12:22:42;;;;;;;9.27;5.00;;;;;;;;;;4999789;28;20501;-82
2022/06/10 12:25:14;;;;;;;7.10;4.37;;;;;;;;;;5001711;28;21074;-81
2022/06/10 12:27:43;;;;;;;9.07;5.40;;;;;;;;;;5002313;28;20474;-82
2022/06/10 12:30:13;;;;;;;11.90;4.73;;;;;;;;;;5001702;28;20478;-81
2022/06/10 12:32:42;;;;;;;8.93;5.40;;;;;;;;;;5003006;28;20923;-82
2022/06/10 12:35:11;;;;;;;5.43;4.80;;;;;;;;;;5000327;28;20897;-80
2022/06/10 12:37:40;;;;;;;7.90;4.53;;;;;;;;;;5000174;28;20494;-83
2022/06/10 12:40:09;;;;;;;8.50;5.13;;;;;;;;;;5001433;28;20519;-80
2022/06/10 12:42:40;;;;;;;9.13;6.80;;;;;;;;;;5001595;28;20497;-83
2022/06/10 12:45:11;;;;;;;9.13;7.30;;;;;;;;;;5001149;28;20520;-81
2022/06/10 12:47:40;;;;;;;7.30;6.60;;;;;;;;;;5000766;28;20481;-82
2022/06/10 12:50:16;;;;;;;11.13;6.77;;;;;;;;;;5001374;28;21900;-81
2022/06/10 12:52:53;;;;;;;8.60;7.73;;;;;;;;;;5005839;28;20454;-82
2022/06/10 12:55:22;;;;;;;9.37;7.50;;;;;;;;;;5006263;28;20454;-79
2022/06/10 12:57:49;;;;;;;7.43;5.80;;;;;;;;;;5005119;28;20841;-81
2022/06/10 13:00:43;;;;;;;9.50;6.60;;;;;;;;;;5005220;28;20527;-82
2022/06/10 13:03:40;;;;;;;9.20;6.40;;;;;;;;;;5005928;28;20473;-81
2022/06/10 13:06:31;;;;;;;12.00;6.20;;;;;;;;;;4944195;28;20504;-78
2022/06/10 13:08:58;;;;;;;8.80;6.97;;;;;;;;;;4998314;28;21065;-80
2022/06/10 13:11:36;;;;;;;11.73;6.70;;;;;;;;;;5005126;28;20513;-81
2022/06/10 13:14:12;;;;;;;8.57;6.47;;;;;;;;;;5005695;28;20474;-80
2022/06/10 13:16:40;;;;;;;12.40;7.70;;;;;;;;;;5005864;28;20450;-81
2022/06/10 13:19:26;;;;;;;15.33;6.70;;;;;;;;;;5002048;28;20492;-83
2022/06/10 13:21:53;;;;;;;7.87;5.73;;;;;;;;;;5005608;28;20528;-83
2022/06/10 13:24:20;;;;;;;8.27;5.63;;;;;;;;;;5003917;28;20537;-82
2022/06/10 13:26:46;;;;;;;7.03;5.47;;;;;;;;;;5003377;28;20473;-80
2022/06/10 13:29:15;;;;;;;15.33;7.03;;;;;;;;;;5004138;28;20532;-79
2022/06/10 13:31:46;;;;;;;7.73;5.40;;;;;;;;;;5004776;28;21017;-81
2022/06/10 13:34:19;;;;;;;13.13;6.40;;;;;;;;;;5004656;28;20470;-82
2022/06/10 13:36:49;;;;;;;9.10;5.47;;;;;;;;;;5005345;28;20974;-83
2022/06/10 13:39:20;;;;;;;9.03;6.90;;;;;;;;;;5004354;28;20481;-81
2022/06/10 13:41:49;;;;;;;7.00;5.30;;;;;;;;;;5003317;28;21182;-83
2022/06/10 13:44:24;;;;;;;7.33;4.90;;;;;;;;;;4999322;28;20509;-82
2022/06/10 13:46:51;;;;;;;9.50;4.50;;;;;;;;;;5005886;28;20527;-84
2022/06/10 13:49:42;;;;;;;12.33;5.53;;;;;;;;;;5004287;28;20906;-82
2022/06/10 13:52:16;;;;;;;8.73;5.87;;;;;;;;;;5007372;28;20456;-83
2022/06/10 13:54:43;;;;;;;7.67;5.67;;;;;;;;;;5001967;28;21100;-80
2022/06/10 13:57:17;;;;;;;13.93;5.97;;;;;;;;;;5004385;28;20896;-82
2022/06/10 13:59:43;;;;;;;7.23;5.10;;;;;;;;;;5000938;28;20480;-83
2022/06/10 14:02:14;;;;;;;7.50;4.97;;;;;;;;;;5004447;28;20974;-81
2022/06/10 14:04:43;;;;;;;6.90;5.47;;;;;;;;;;5002871;28;20482;-83
2022/06/10 14:07:14;;;;;;;6.63;4.40;;;;;;;;;;5005106;28;20462;-82
2022/06/10 14:09:41;;;;;;;9.70;5.07;;;;;;;;;;5002599;28;20479;-82
2022/06/10 14:12:27;;;;;;;7.57;4.73;;;;;;;;;;5003097;28;20457;-83
2022/06/10 14:14:53;;;;;;;6.80;4.70;;;;;;;;;;5002290;28;20466;-83
2022/06/10 14:17:21;;;;;;;5.50;3.97;;;;;;;;;;4998524;28;20486;-81
2022/06/10 14:19:49;;;;;;;8.43;4.00;;;;;;;;;;5004057;28;20474;-80
2022/06/10 14:22:18;;;;;;;10.20;4.50;;;;;;;;;;5004542;28;20463;-81
2022/06/10 14:24:44;;;;;;;5.03;3.43;;;;;;;;;;5003601;28;20477;-83
2022/06/10 14:27:18;;;;;;;6.73;4.90;;;;;;;;;;5003846;28;20525;-82
2022/06/10 14:29:46;;;;;;;5.10;3.20;;;;;;;;;;5002489;28;20477;-82
2022/06/10 14:32:19;;;;;;;10.07;4.00;;;;;;;;;;5002943;28;20470;-82
2022/06/10 14:34:46;;;;;;;6.23;3.93;;;;;;;;;;5003017;28;20553;-82
2022/06/10 14:37:23;;;;;;;5.97;4.70;;;;;;;;;;5004145;28;20455;-80
2022/06/10 14:40:02;;;;;;;6.50;4.00;;;;;;;;;;5004273;28;20560;-80
2022/06/10 14:42:32;;;;;;;6.00;4.00;;;;;;;;;;5001796;28;20512;-86
2022/06/10 14:45:00;;;;;;;7.27;4.30;;;;;;;;;;5000608;28;20478;-85
2022/06/10 14:47:27;;;;;;;7.27;4.90;;;;;;;;;;5000404;28;20458;-83
2022/06/10 14:49:55;;;;;;;9.67;4.87;;;;;;;;;;5002413;28;20519;-84
2022/06/10 14:52:23;;;;;;;7.53;4.10;;;;;;;;;;5002512;28;20469;-83
2022/06/10 14:54:49;;;;;;;8.70;4.27;;;;;;;;;;4997379;28;20482;-85
2022/06/10 14:57:20;;;;;;;8.83;3.90;;;;;;;;;;5001819;28;20461;-82
2022/06/10 14:59:48;;;;;;;12.97;5.77;;;;;;;;;;5003355;28;20463;-84
2022/06/10 15:02:15;;;;;;;9.50;4.30;;;;;;;;;;5001089;28;24896;-83
2022/06/10 15:06:14;;;;;;;6.70;3.93;;;;;;;;;;4999667;28;21102;-85
2022/06/10 15:07:27;;;;;;;6.53;3.67;;;;;;;;;;5001064;28;20454;-83
2022/06/10 15:09:54;;;;;;;9.00;4.50;;;;;;;;;;5003349;28;20487;-83